createdAt,value
2022-12-03T00:01:19.827Z,3.96
2022-12-03T00:03:47.783Z,4.59
2022-12-03T00:06:15.870Z,5.57
2022-12-03T00:08:44.151Z,5.78
2022-12-03T00:11:12.268Z,4.64
2022-12-03T00:13:40.059Z,3.62
2022-12-03T00:16:08.544Z,2.83
2022-12-03T00:18:36.476Z,2.20
2022-12-03T00:21:04.425Z,1.69
2022-12-03T00:23:34.889Z,1.30
2022-12-03T00:26:06.498Z,0.94
2022-12-03T00:28:34.611Z,0.97
2022-12-03T00:31:02.624Z,2.26
2022-12-03T00:33:31.333Z,3.40
2022-12-03T00:35:59.670Z,3.96
2022-12-03T00:38:27.440Z,4.07
2022-12-03T00:40:55.314Z,4.00
2022-12-03T00:43:23.451Z,4.01
2022-12-03T00:45:51.386Z,4.22
2022-12-03T00:48:19.215Z,4.24
2022-12-03T00:50:47.421Z,3.53
2022-12-03T00:53:15.345Z,2.62
2022-12-03T00:55:43.125Z,1.94
2022-12-03T00:58:11.138Z,1.43
2022-12-03T01:00:39.026Z,1.33
2022-12-03T01:03:06.850Z,3.65
2022-12-03T01:05:35.264Z,5.97
2022-12-03T01:08:03.264Z,7.22
2022-12-03T01:10:31.108Z,7.49
2022-12-03T01:12:59.184Z,6.00
2022-12-03T01:15:27.038Z,4.60
2022-12-03T01:17:54.979Z,3.60
2022-12-03T01:20:23.202Z,2.83
2022-12-03T01:22:51.131Z,2.21
2022-12-03T01:25:19.095Z,1.70
2022-12-03T01:27:47.169Z,1.27
2022-12-03T01:30:15.156Z,0.97
2022-12-03T01:32:42.996Z,2.60
2022-12-03T01:35:11.201Z,5.18
2022-12-03T01:37:39.095Z,6.79
2022-12-03T01:40:08.420Z,7.17
2022-12-03T01:42:41.012Z,5.71
2022-12-03T01:45:21.400Z,4.32
2022-12-03T01:47:49.870Z,3.30
2022-12-03T01:50:33.196Z,2.61
2022-12-03T01:53:03.330Z,1.96
2022-12-03T01:55:31.438Z,1.45
2022-12-03T01:58:02.122Z,1.02
2022-12-03T02:00:30.847Z,0.72
2022-12-03T02:03:11.481Z,1.30
2022-12-03T02:05:39.627Z,2.74
2022-12-03T02:08:32.075Z,3.42
2022-12-03T02:11:10.671Z,5.07
2022-12-03T02:13:38.754Z,6.45
2022-12-03T02:16:06.954Z,6.77
2022-12-03T02:18:35.053Z,5.41
2022-12-03T02:21:31.163Z,4.13
2022-12-03T02:24:13.436Z,3.05
2022-12-03T02:26:41.348Z,2.34
2022-12-03T02:29:09.218Z,1.78
2022-12-03T02:31:38.412Z,1.31
2022-12-03T02:34:07.883Z,0.92
2022-12-03T02:36:37.100Z,0.58
2022-12-03T02:39:05.689Z,0.68
2022-12-03T02:41:52.664Z,2.78
2022-12-03T02:44:20.614Z,5.52
2022-12-03T02:46:48.485Z,6.31
2022-12-03T02:49:16.376Z,5.09
2022-12-03T02:51:44.894Z,3.81
2022-12-03T02:54:12.944Z,2.92
2022-12-03T02:56:40.889Z,2.22
2022-12-03T02:59:09.130Z,1.69
2022-12-03T03:01:37.209Z,1.26
2022-12-03T03:04:06.695Z,0.89
2022-12-03T03:06:34.800Z,0.72
2022-12-03T03:09:04.229Z,1.46
2022-12-03T03:11:32.411Z,2.86
2022-12-03T03:14:02.707Z,4.81
2022-12-03T03:16:30.704Z,6.00
2022-12-03T03:18:58.699Z,5.82
2022-12-03T03:21:26.881Z,4.57
2022-12-03T03:23:54.668Z,3.48
2022-12-03T03:26:22.660Z,2.70
2022-12-03T03:28:51.993Z,2.08
2022-12-03T03:31:23.162Z,1.55
2022-12-03T03:33:51.739Z,1.14
2022-12-03T03:36:20.250Z,1.91
2022-12-03T03:38:48.456Z,3.99
2022-12-03T03:41:17.902Z,5.53
2022-12-03T03:43:48.049Z,6.49
2022-12-03T03:46:17.341Z,5.77
2022-12-03T03:48:45.600Z,4.38
2022-12-03T03:51:13.970Z,3.35
2022-12-03T03:53:48.026Z,2.57
2022-12-03T03:56:21.580Z,1.95
2022-12-03T03:58:49.864Z,1.46
2022-12-03T04:01:18.278Z,1.53
2022-12-03T04:03:46.361Z,2.82
2022-12-03T04:06:14.300Z,4.15
2022-12-03T04:08:42.142Z,4.98
2022-12-03T04:11:28.560Z,5.41
2022-12-03T04:13:56.415Z,4.54
2022-12-03T04:16:24.301Z,3.47
2022-12-03T04:18:52.432Z,2.66
2022-12-03T04:21:41.455Z,2.04
2022-12-03T04:24:10.980Z,1.51
2022-12-03T04:26:58.129Z,1.13
2022-12-03T04:29:26.159Z,0.77
2022-12-03T04:32:12.885Z,0.67
2022-12-03T04:34:59.691Z,1.59
2022-12-03T04:37:27.669Z,2.58
2022-12-03T04:39:55.608Z,4.28
2022-12-03T04:42:23.514Z,5.52
2022-12-03T04:44:51.516Z,5.75
2022-12-03T04:47:21.823Z,4.61
2022-12-03T04:49:51.553Z,3.53
2022-12-03T04:52:20.667Z,2.77
2022-12-03T04:54:48.639Z,2.15
2022-12-03T04:57:16.886Z,1.65
2022-12-03T04:59:44.769Z,1.25
2022-12-03T05:02:12.795Z,1.09
2022-12-03T05:04:41.671Z,2.14
2022-12-03T05:07:09.654Z,3.44
2022-12-03T05:09:37.399Z,4.28
2022-12-03T05:12:05.465Z,4.57
2022-12-03T05:14:33.513Z,4.79
2022-12-03T05:17:01.458Z,4.17
2022-12-03T05:19:48.167Z,3.20
2022-12-03T05:22:16.059Z,2.37
2022-12-03T05:24:43.823Z,1.79
2022-12-03T05:27:11.713Z,1.34
2022-12-03T05:29:39.785Z,1.12
2022-12-03T05:32:07.544Z,1.88
2022-12-03T05:34:35.477Z,2.80
2022-12-03T05:37:03.569Z,3.38
2022-12-03T05:39:31.451Z,3.62
2022-12-03T05:42:18.194Z,3.84
2022-12-03T05:44:46.578Z,3.94
2022-12-03T05:47:14.489Z,4.08
2022-12-03T05:49:42.553Z,4.75
2022-12-03T05:52:10.663Z,6.14
2022-12-03T05:54:38.695Z,5.55
2022-12-03T05:57:06.593Z,4.32
2022-12-03T05:59:34.484Z,3.35
2022-12-03T06:02:02.731Z,2.67
2022-12-03T06:04:30.829Z,2.12
2022-12-03T06:06:58.970Z,1.63
2022-12-03T06:09:26.988Z,1.25
2022-12-03T06:11:54.988Z,1.40
2022-12-03T06:14:22.908Z,3.15
2022-12-03T06:16:50.931Z,4.46
2022-12-03T06:19:18.806Z,4.80
2022-12-03T06:21:46.594Z,4.91
2022-12-03T06:24:14.361Z,4.91
2022-12-03T06:26:42.273Z,3.93
2022-12-03T06:29:10.147Z,2.96
2022-12-03T06:31:38.009Z,2.29
2022-12-03T06:34:06.114Z,1.78
2022-12-03T06:36:33.849Z,1.35
2022-12-03T06:39:01.607Z,1.27
2022-12-03T06:41:29.619Z,3.21
2022-12-03T06:43:57.505Z,5.45
2022-12-03T06:46:25.493Z,5.84
2022-12-03T06:48:53.437Z,4.72
2022-12-03T06:51:21.313Z,3.62
2022-12-03T06:53:49.121Z,2.83
2022-12-03T06:56:21.921Z,2.19
2022-12-03T06:58:50.412Z,1.68
2022-12-03T07:01:18.661Z,1.47
2022-12-03T07:03:46.767Z,3.47
2022-12-03T07:06:14.615Z,5.73
2022-12-03T07:08:42.542Z,6.67
2022-12-03T07:11:30.410Z,5.55
2022-12-03T07:14:05.151Z,4.09
2022-12-03T07:16:37.637Z,3.20
2022-12-03T07:19:06.889Z,2.59
2022-12-03T07:21:34.752Z,2.09
2022-12-03T07:24:02.546Z,1.65
2022-12-03T07:26:31.000Z,1.55
2022-12-03T07:28:58.938Z,2.99
2022-12-03T07:31:26.929Z,4.72
2022-12-03T07:33:55.495Z,5.15
2022-12-03T07:36:23.427Z,5.11
2022-12-03T07:38:51.198Z,5.30
2022-12-03T07:41:19.583Z,5.73
2022-12-03T07:43:47.532Z,5.03
2022-12-03T07:46:15.845Z,3.95
2022-12-03T07:48:44.090Z,3.13
2022-12-03T07:51:15.253Z,2.52
2022-12-03T07:53:43.621Z,2.02
2022-12-03T07:56:11.883Z,1.62
2022-12-03T07:58:39.889Z,1.40
2022-12-03T08:01:07.837Z,1.85
2022-12-03T08:03:36.049Z,3.10
2022-12-03T08:06:04.166Z,4.36
2022-12-03T08:08:32.048Z,4.87
2022-12-03T08:11:01.977Z,4.96
2022-12-03T08:13:29.828Z,4.92
2022-12-03T08:16:00.788Z,4.88
2022-12-03T08:18:29.364Z,5.06
2022-12-03T08:20:57.415Z,5.84
2022-12-03T08:23:25.952Z,5.92
2022-12-03T08:25:53.981Z,4.94
2022-12-03T08:28:25.775Z,3.99
2022-12-03T08:31:01.864Z,3.22
2022-12-03T08:33:35.571Z,2.62
2022-12-03T08:36:14.851Z,2.07
2022-12-03T08:38:50.017Z,1.99
2022-12-03T08:41:40.063Z,2.98
2022-12-03T08:44:27.719Z,3.65
2022-12-03T08:47:22.416Z,4.48
2022-12-03T08:50:03.368Z,5.30
2022-12-03T08:52:33.468Z,5.91
2022-12-03T08:55:29.182Z,6.19
2022-12-03T08:57:58.380Z,5.03
2022-12-03T09:00:29.696Z,3.93
2022-12-03T09:03:04.055Z,3.10
2022-12-03T09:05:35.504Z,2.44
2022-12-03T09:08:03.410Z,2.28
2022-12-03T09:10:31.310Z,3.30
2022-12-03T09:12:59.284Z,3.66
2022-12-03T09:15:28.686Z,3.59
2022-12-03T09:17:56.605Z,3.62
2022-12-03T09:20:24.498Z,3.77
2022-12-03T09:22:52.372Z,4.07
2022-12-03T09:25:20.215Z,4.11
2022-12-03T09:27:48.233Z,3.99
2022-12-03T09:30:16.995Z,3.95
2022-12-03T09:32:45.369Z,4.13
2022-12-03T09:35:13.335Z,4.36
2022-12-03T09:37:41.216Z,4.54
2022-12-03T09:40:10.700Z,4.69
2022-12-03T09:42:39.030Z,4.71
2022-12-03T09:45:14.522Z,4.64
2022-12-03T09:47:46.170Z,4.27
2022-12-03T09:50:25.867Z,4.31
2022-12-03T09:53:01.706Z,4.40
2022-12-03T09:55:30.773Z,4.50
2022-12-03T09:57:58.948Z,5.15
2022-12-03T10:00:30.739Z,7.00
2022-12-03T10:03:04.663Z,7.68
2022-12-03T10:05:34.006Z,6.46
2022-12-03T10:08:13.631Z,5.23
2022-12-03T10:10:42.101Z,4.25
2022-12-03T10:13:29.920Z,3.56
2022-12-03T10:16:02.706Z,2.88
2022-12-03T10:18:41.591Z,2.78
2022-12-03T10:21:35.110Z,3.44
2022-12-03T10:24:18.102Z,4.12
2022-12-03T10:26:47.550Z,5.05
2022-12-03T10:29:29.645Z,6.87
2022-12-03T10:32:10.288Z,8.11
2022-12-03T10:34:41.600Z,7.37
2022-12-03T10:37:17.222Z,5.91
2022-12-03T10:40:01.899Z,4.81
2022-12-03T10:42:35.285Z,3.96
2022-12-03T10:45:15.706Z,3.30
2022-12-03T10:48:01.448Z,2.89
2022-12-03T10:50:31.189Z,3.39
2022-12-03T10:52:59.406Z,3.92
2022-12-03T10:55:29.778Z,4.23
2022-12-03T10:57:57.844Z,4.78
2022-12-03T11:00:26.484Z,5.22
2022-12-03T11:02:56.999Z,5.68
2022-12-03T11:05:30.420Z,6.03
2022-12-03T11:07:58.295Z,5.93
2022-12-03T11:10:26.578Z,5.90
2022-12-03T11:13:32.379Z,5.91
2022-12-03T11:16:09.518Z,6.02
2022-12-03T11:18:37.406Z,6.14
2022-12-03T11:21:12.692Z,6.81
2022-12-03T11:24:00.876Z,7.71
2022-12-03T11:26:28.839Z,8.19
2022-12-03T11:28:58.458Z,6.98
2022-12-03T11:31:48.555Z,5.81
2022-12-03T11:34:22.707Z,4.80
2022-12-03T11:37:12.516Z,4.10
2022-12-03T11:39:49.704Z,3.47
2022-12-03T11:42:26.837Z,3.30
2022-12-03T11:45:04.244Z,4.25
2022-12-03T11:47:47.968Z,5.19
2022-12-03T11:50:50.309Z,5.65
2022-12-03T11:53:26.989Z,5.90
2022-12-03T11:56:08.627Z,6.21
2022-12-03T11:58:39.170Z,6.35
2022-12-03T12:01:09.018Z,6.59
2022-12-03T12:03:43.615Z,6.69
2022-12-03T12:06:14.340Z,6.77
2022-12-03T12:09:04.122Z,6.80
2022-12-03T12:11:34.771Z,6.86
2022-12-03T12:14:09.923Z,6.90
2022-12-03T12:16:53.074Z,6.84
2022-12-03T12:19:41.477Z,5.94
2022-12-03T12:22:25.156Z,4.97
2022-12-03T12:25:01.392Z,4.29
2022-12-03T12:27:33.407Z,4.14
2022-12-03T12:30:15.098Z,4.96
2022-12-03T12:32:50.542Z,6.03
2022-12-03T12:35:22.860Z,6.60
2022-12-03T12:38:00.073Z,7.04
2022-12-03T12:40:33.760Z,7.70
2022-12-03T12:43:23.981Z,7.49
2022-12-03T12:46:13.687Z,6.12
2022-12-03T12:48:48.239Z,5.02
2022-12-03T12:51:21.098Z,4.35
2022-12-03T12:53:50.252Z,3.81
2022-12-03T12:56:42.608Z,3.62
2022-12-03T12:59:10.609Z,4.70
2022-12-03T13:01:40.300Z,5.66
2022-12-03T13:04:14.172Z,6.36
2022-12-03T13:06:42.591Z,6.91
2022-12-03T13:09:30.206Z,7.24
2022-12-03T13:12:03.114Z,7.52
2022-12-03T13:14:35.325Z,7.44
2022-12-03T13:17:19.668Z,6.44
2022-12-03T13:19:53.887Z,5.44
2022-12-03T13:22:26.329Z,4.72
2022-12-03T13:24:57.463Z,4.20
2022-12-03T13:27:31.863Z,4.01
2022-12-03T13:30:03.989Z,4.88
2022-12-03T13:32:34.674Z,5.81
2022-12-03T13:35:03.498Z,6.24
2022-12-03T13:37:31.753Z,6.50
2022-12-03T13:40:26.519Z,6.62
2022-12-03T13:42:55.293Z,6.66
2022-12-03T13:45:24.972Z,6.58
2022-12-03T13:47:58.886Z,6.70
2022-12-03T13:50:42.045Z,6.56
2022-12-03T13:53:21.798Z,6.84
2022-12-03T13:55:58.064Z,7.39
2022-12-03T13:58:26.294Z,7.67
2022-12-03T14:00:54.517Z,7.43
2022-12-03T14:03:23.488Z,6.48
2022-12-03T14:05:51.383Z,5.64
2022-12-03T14:08:19.546Z,4.99
2022-12-03T14:10:52.107Z,4.44
2022-12-03T14:13:22.355Z,4.26
2022-12-03T14:15:50.197Z,5.05
2022-12-03T14:18:18.053Z,5.15
2022-12-03T14:20:46.490Z,4.99
2022-12-03T14:23:17.313Z,4.84
2022-12-03T14:25:45.234Z,5.48
2022-12-03T14:28:13.426Z,7.05
2022-12-03T14:30:41.258Z,7.80
2022-12-03T14:33:09.141Z,8.94
2022-12-03T14:35:37.437Z,9.00
2022-12-03T14:38:05.289Z,7.65
2022-12-03T14:40:33.085Z,6.47
2022-12-03T14:43:01.263Z,5.61
2022-12-03T14:45:30.104Z,4.93
2022-12-03T14:47:58.149Z,4.64
2022-12-03T14:50:27.044Z,5.30
2022-12-03T14:52:54.854Z,5.90
2022-12-03T14:55:22.715Z,6.73
2022-12-03T14:57:51.184Z,7.48
2022-12-03T15:00:19.499Z,7.85
2022-12-03T15:02:47.523Z,7.89
2022-12-03T15:05:15.733Z,7.91
2022-12-03T15:07:43.681Z,7.91
2022-12-03T15:10:11.826Z,7.87
2022-12-03T15:12:39.830Z,7.85
2022-12-03T15:15:08.174Z,7.91
2022-12-03T15:17:35.926Z,7.86
2022-12-03T15:20:04.283Z,7.79
2022-12-03T15:22:32.328Z,7.72
2022-12-03T15:25:01.996Z,7.76
2022-12-03T15:27:30.202Z,7.94
2022-12-03T15:29:58.166Z,7.91
2022-12-03T15:32:25.962Z,7.22
2022-12-03T15:34:54.058Z,6.34
2022-12-03T15:37:21.995Z,5.61
2022-12-03T15:39:49.808Z,5.22
2022-12-03T15:42:17.874Z,5.49
2022-12-03T15:44:47.270Z,6.22
2022-12-03T15:47:15.218Z,6.71
2022-12-03T15:49:43.278Z,7.20
2022-12-03T15:52:13.452Z,7.58
2022-12-03T15:54:41.499Z,7.72
2022-12-03T15:57:10.014Z,7.77
2022-12-03T15:59:39.011Z,7.76
2022-12-03T16:02:07.848Z,7.76
2022-12-03T16:04:36.908Z,7.84
2022-12-03T16:07:04.786Z,7.84
2022-12-03T16:09:32.742Z,7.63
2022-12-03T16:12:00.799Z,7.56
2022-12-03T16:14:28.682Z,7.39
2022-12-03T16:16:58.919Z,7.07
2022-12-03T16:19:27.034Z,6.86
2022-12-03T16:21:54.886Z,6.85
2022-12-03T16:24:22.953Z,6.83
2022-12-03T16:26:51.027Z,6.81
2022-12-03T16:29:18.870Z,6.84
2022-12-03T16:31:46.888Z,6.93
2022-12-03T16:34:14.890Z,6.99
2022-12-03T16:36:42.768Z,6.76
2022-12-03T16:39:11.047Z,6.51
2022-12-03T16:41:39.753Z,6.51
2022-12-03T16:44:07.632Z,6.91
2022-12-03T16:46:35.677Z,7.16
2022-12-03T16:49:04.194Z,7.31
2022-12-03T16:51:32.040Z,7.29
2022-12-03T16:54:02.160Z,7.00
2022-12-03T16:56:30.190Z,7.30
2022-12-03T16:58:57.982Z,7.95
2022-12-03T17:01:25.950Z,8.30
2022-12-03T17:03:54.770Z,8.34
2022-12-03T17:06:22.616Z,8.35
2022-12-03T17:08:52.789Z,8.29
2022-12-03T17:11:20.868Z,8.40
2022-12-03T17:13:48.656Z,8.93
2022-12-03T17:16:16.777Z,8.89
2022-12-03T17:18:44.831Z,7.77
2022-12-03T17:21:12.856Z,6.72
2022-12-03T17:23:40.751Z,5.92
2022-12-03T17:26:08.719Z,5.26
2022-12-03T17:28:36.519Z,5.02
2022-12-03T17:31:04.577Z,5.99
2022-12-03T17:33:32.999Z,7.03
2022-12-03T17:36:01.736Z,7.72
2022-12-03T17:38:32.761Z,8.08
2022-12-03T17:41:05.691Z,8.01
2022-12-03T17:43:33.540Z,7.66
2022-12-03T17:46:01.594Z,7.80
2022-12-03T17:48:31.421Z,8.70
2022-12-03T17:50:59.641Z,10.03
2022-12-03T17:53:29.772Z,10.27
2022-12-03T17:55:57.895Z,8.86
2022-12-03T17:58:26.963Z,7.34
2022-12-03T18:01:00.273Z,6.23
2022-12-03T18:03:31.285Z,5.55
2022-12-03T18:05:59.337Z,5.50
2022-12-03T18:08:27.288Z,5.95
2022-12-03T18:10:55.454Z,7.05
2022-12-03T18:13:23.217Z,7.35
2022-12-03T18:15:51.109Z,8.33
2022-12-03T18:18:19.371Z,8.85
2022-12-03T18:20:47.358Z,9.00
2022-12-03T18:23:15.308Z,9.00
2022-12-03T18:25:43.533Z,8.41
2022-12-03T18:28:11.358Z,7.13
2022-12-03T18:30:39.230Z,6.12
2022-12-03T18:33:07.493Z,5.61
2022-12-03T18:35:35.427Z,6.29
2022-12-03T18:38:03.275Z,6.75
2022-12-03T18:40:31.530Z,6.91
2022-12-03T18:42:59.932Z,7.30
2022-12-03T18:45:28.805Z,7.73
2022-12-03T18:47:57.081Z,7.91
2022-12-03T18:50:25.128Z,8.61
2022-12-03T18:52:52.945Z,9.57
2022-12-03T18:55:22.046Z,9.76
2022-12-03T18:57:49.851Z,8.39
2022-12-03T19:00:17.869Z,7.13
2022-12-03T19:05:35.287Z,5.67
2022-12-03T19:08:04.081Z,7.06
2022-12-03T19:10:32.048Z,8.27
2022-12-03T19:12:59.919Z,8.79
2022-12-03T19:15:28.039Z,8.89
2022-12-03T19:17:55.823Z,9.26
2022-12-03T19:20:23.601Z,9.76
2022-12-03T19:22:51.990Z,8.82
2022-12-03T19:25:19.770Z,7.40
2022-12-03T19:27:50.143Z,6.28
2022-12-03T19:30:18.319Z,5.56
2022-12-03T19:32:46.201Z,5.62
2022-12-03T19:35:14.078Z,7.00
2022-12-03T19:37:44.390Z,8.96
2022-12-03T19:40:12.408Z,10.14
2022-12-03T19:42:40.432Z,10.06
2022-12-03T19:45:09.364Z,8.53
2022-12-03T19:47:37.432Z,7.23
2022-12-03T19:50:06.403Z,6.30
2022-12-03T19:52:36.762Z,6.24
2022-12-03T19:55:05.251Z,8.66
2022-12-03T19:57:33.071Z,10.37
2022-12-03T20:00:01.435Z,10.26
2022-12-03T20:02:29.374Z,8.67
2022-12-03T20:04:57.390Z,7.33
2022-12-03T20:07:25.722Z,6.33
2022-12-03T20:09:54.111Z,5.57
2022-12-03T20:12:22.099Z,5.70
2022-12-03T20:14:51.843Z,8.10
2022-12-03T20:17:19.952Z,9.81
2022-12-03T20:19:48.061Z,9.33
2022-12-03T20:22:16.231Z,7.81
2022-12-03T20:24:44.002Z,6.64
2022-12-03T20:27:11.875Z,5.82
2022-12-03T20:29:40.313Z,5.92
2022-12-03T20:32:08.255Z,8.17
2022-12-03T20:34:36.359Z,9.75
2022-12-03T20:37:07.468Z,10.27
2022-12-03T20:39:35.236Z,8.94
2022-12-03T20:42:03.053Z,7.49
2022-12-03T20:44:31.247Z,6.47
2022-12-03T20:46:59.092Z,5.74
2022-12-03T20:49:26.865Z,5.82
2022-12-03T20:51:57.064Z,8.09
2022-12-03T20:54:27.734Z,9.70
2022-12-03T20:56:55.681Z,10.37
2022-12-03T20:59:23.753Z,9.65
2022-12-03T21:01:51.642Z,7.99
2022-12-03T21:04:19.645Z,6.75
2022-12-03T21:06:47.825Z,5.82
2022-12-03T21:09:15.672Z,6.24
2022-12-03T21:11:43.696Z,7.99
2022-12-03T21:14:11.890Z,9.35
2022-12-03T21:19:30.447Z,7.98
2022-12-03T21:21:58.341Z,6.74
2022-12-03T21:24:26.659Z,5.78
2022-12-03T21:26:54.876Z,5.46
2022-12-03T21:29:23.031Z,7.09
2022-12-03T21:31:51.253Z,8.54
2022-12-03T21:34:19.664Z,9.04
2022-12-03T21:36:47.535Z,9.51
2022-12-03T21:39:15.462Z,9.59
2022-12-03T21:42:34.512Z,8.17
2022-12-03T21:44:31.710Z,6.52
2022-12-03T21:47:10.664Z,5.90
2022-12-03T21:49:41.868Z,7.39
2022-12-03T21:52:10.805Z,8.30
2022-12-03T21:54:39.114Z,8.33
2022-12-03T21:57:07.096Z,8.39
2022-12-03T21:59:35.676Z,8.57
2022-12-03T22:02:04.374Z,8.87
2022-12-03T22:04:32.598Z,8.89
2022-12-03T22:07:00.873Z,8.15
2022-12-03T22:09:28.708Z,6.79
2022-12-03T22:11:59.311Z,5.94
2022-12-03T22:14:28.316Z,6.77
2022-12-03T22:16:56.255Z,8.33
2022-12-03T22:19:25.805Z,9.19
2022-12-03T22:21:53.901Z,9.62
2022-12-03T22:24:23.858Z,8.84
2022-12-03T22:26:53.566Z,7.32
2022-12-03T22:29:21.837Z,6.14
2022-12-03T22:31:49.674Z,5.55
2022-12-03T22:34:17.473Z,7.23
2022-12-03T22:36:45.708Z,9.23
2022-12-03T22:39:13.485Z,10.22
2022-12-03T22:41:41.298Z,10.15
2022-12-03T22:44:09.423Z,8.60
2022-12-03T22:46:37.325Z,7.17
2022-12-03T22:49:07.357Z,6.00
2022-12-03T22:51:36.075Z,5.94
2022-12-03T22:54:04.374Z,8.00
2022-12-03T22:56:33.017Z,9.29
2022-12-03T22:59:01.227Z,10.03
2022-12-03T23:01:32.518Z,9.97
2022-12-03T23:04:01.094Z,8.34
2022-12-03T23:06:30.789Z,6.84
2022-12-03T23:08:59.445Z,6.79
2022-12-03T23:11:27.943Z,8.72
2022-12-03T23:13:59.173Z,9.93
2022-12-03T23:16:30.777Z,10.18
2022-12-03T23:19:00.519Z,8.61
2022-12-03T23:21:31.737Z,7.08
2022-12-03T23:24:01.569Z,5.96
2022-12-03T23:26:29.793Z,5.51
2022-12-03T23:28:57.558Z,7.34
2022-12-03T23:31:28.891Z,8.99
2022-12-03T23:33:57.805Z,9.49
2022-12-03T23:36:28.263Z,9.99
2022-12-03T23:38:56.230Z,9.13
2022-12-03T23:41:25.148Z,7.49
2022-12-03T23:43:53.059Z,6.15
2022-12-03T23:46:23.706Z,5.68
2022-12-03T23:48:51.970Z,6.86
2022-12-03T23:51:26.852Z,8.40
2022-12-03T23:53:55.930Z,9.72
2022-12-03T23:56:27.076Z,9.75
2022-12-03T23:58:56.175Z,8.08
